createdAt,value
2022-08-13T00:02:31.265Z,3.00
2022-08-13T00:05:41.331Z,3.10
2022-08-13T00:07:54.929Z,2.70
2022-08-13T00:10:35.029Z,2.93
2022-08-13T00:13:07.413Z,2.87
2022-08-13T00:15:40.909Z,3.20
2022-08-13T00:18:18.262Z,3.13
2022-08-13T00:20:57.707Z,2.63
2022-08-13T00:23:54.057Z,3.27
2022-08-13T00:26:32.665Z,2.77
2022-08-13T00:29:16.438Z,2.83
2022-08-13T00:31:55.528Z,2.73
2022-08-13T00:34:25.204Z,2.77
2022-08-13T00:37:06.616Z,3.20
2022-08-13T00:40:17.705Z,3.07
2022-08-13T00:42:30.099Z,2.77
2022-08-13T00:45:08.879Z,3.00
2022-08-13T00:48:03.132Z,3.10
2022-08-13T00:50:32.709Z,2.97
2022-08-13T00:53:12.539Z,2.80
2022-08-13T00:55:41.380Z,3.13
2022-08-13T00:58:11.832Z,3.10
2022-08-13T01:00:52.624Z,2.90
2022-08-13T01:03:44.971Z,3.10
2022-08-13T01:06:12.952Z,3.13
2022-08-13T01:08:55.179Z,2.93
2022-08-13T01:11:30.564Z,3.47
2022-08-13T01:14:00.833Z,3.07
2022-08-13T01:16:37.267Z,3.20
2022-08-13T01:19:10.064Z,3.23
2022-08-13T01:21:46.309Z,3.60
2022-08-13T01:24:15.794Z,3.30
2022-08-13T01:26:52.879Z,3.40
2022-08-13T01:29:22.238Z,3.33
2022-08-13T01:31:52.534Z,3.47
2022-08-13T01:34:25.293Z,4.00
2022-08-13T01:36:57.042Z,3.33
2022-08-13T01:39:38.890Z,3.60
2022-08-13T01:42:18.072Z,3.77
2022-08-13T01:44:47.520Z,3.57
2022-08-13T01:47:42.822Z,4.50
2022-08-13T01:50:32.848Z,3.50
2022-08-13T01:53:02.975Z,3.83
2022-08-13T01:56:05.622Z,4.27
2022-08-13T01:59:01.028Z,4.27
2022-08-13T02:01:41.550Z,4.07
2022-08-13T02:04:22.687Z,4.13
2022-08-13T02:06:53.535Z,4.17
2022-08-13T02:09:59.126Z,3.90
2022-08-13T02:12:27.046Z,4.00
2022-08-13T02:15:04.420Z,3.87
2022-08-13T02:18:01.263Z,4.23
2022-08-13T02:20:21.959Z,3.80
2022-08-13T02:22:51.984Z,4.60
2022-08-13T02:25:22.420Z,4.30
2022-08-13T02:27:58.070Z,4.27
2022-08-13T02:30:28.878Z,4.50
2022-08-13T02:33:01.517Z,4.77
2022-08-13T02:35:38.522Z,4.23
2022-08-13T02:38:29.728Z,4.23
2022-08-13T02:41:17.403Z,4.77
2022-08-13T02:43:58.541Z,4.63
2022-08-13T02:46:27.836Z,3.93
2022-08-13T02:49:00.683Z,4.10
2022-08-13T02:52:08.053Z,3.87
2022-08-13T02:54:25.147Z,4.27
2022-08-13T02:56:53.113Z,3.63
2022-08-13T03:00:02.464Z,3.60
2022-08-13T03:02:08.412Z,4.03
2022-08-13T03:04:46.219Z,3.87
2022-08-13T03:07:13.650Z,4.30
2022-08-13T03:09:46.029Z,3.87
2022-08-13T03:12:17.339Z,4.30
2022-08-13T03:14:48.762Z,4.57
2022-08-13T03:17:22.575Z,4.23
2022-08-13T03:19:57.086Z,4.23
2022-08-13T03:22:32.385Z,4.23
2022-08-13T03:25:00.704Z,4.47
2022-08-13T03:27:32.379Z,5.07
2022-08-13T03:30:07.127Z,5.13
2022-08-13T03:32:43.136Z,4.67
2022-08-13T03:35:42.460Z,4.43
2022-08-13T03:38:13.897Z,4.67
2022-08-13T03:41:00.095Z,4.83
2022-08-13T03:43:28.457Z,4.87
2022-08-13T03:45:57.511Z,5.80
2022-08-13T03:48:25.995Z,5.50
2022-08-13T03:50:55.827Z,5.47
2022-08-13T03:53:26.678Z,4.97
2022-08-13T03:56:13.050Z,5.27
2022-08-13T03:58:41.445Z,5.47
2022-08-13T04:01:11.093Z,5.90
2022-08-13T04:03:43.438Z,5.97
2022-08-13T04:06:25.299Z,5.40
2022-08-13T04:08:54.975Z,5.57
2022-08-13T04:11:28.293Z,6.77
2022-08-13T04:14:00.803Z,6.07
2022-08-13T04:16:34.931Z,6.33
2022-08-13T04:19:04.894Z,5.07
2022-08-13T04:21:34.326Z,6.00
2022-08-13T04:24:05.733Z,5.07
2022-08-13T04:26:39.157Z,5.00
2022-08-13T04:29:09.733Z,4.40
2022-08-13T04:31:47.073Z,4.93
2022-08-13T04:34:32.670Z,4.23
2022-08-13T04:37:09.918Z,5.00
2022-08-13T04:40:07.827Z,4.90
2022-08-13T04:42:49.380Z,4.50
2022-08-13T04:45:17.551Z,4.93
2022-08-13T04:47:45.340Z,4.83
2022-08-13T04:50:16.725Z,4.70
2022-08-13T04:52:49.210Z,4.87
2022-08-13T04:55:19.585Z,5.20
2022-08-13T04:57:56.523Z,5.27
2022-08-13T05:00:36.900Z,5.50
2022-08-13T05:03:16.903Z,5.40
2022-08-13T05:05:49.884Z,5.60
2022-08-13T05:08:18.126Z,5.30
2022-08-13T05:10:47.388Z,5.40
2022-08-13T05:13:37.345Z,5.30
2022-08-13T05:16:13.213Z,5.67
2022-08-13T05:18:47.294Z,5.73
2022-08-13T05:21:17.899Z,5.60
2022-08-13T05:26:22.714Z,5.60
2022-08-13T05:26:57.781Z,5.97
2022-08-13T05:31:54.881Z,5.80
2022-08-13T05:34:30.687Z,6.47
2022-08-13T05:38:11.786Z,5.90
2022-08-13T05:39:47.930Z,5.97
2022-08-13T05:42:24.479Z,6.33
2022-08-13T05:44:57.268Z,6.23
2022-08-13T05:47:25.872Z,6.17
2022-08-13T05:49:58.133Z,6.50
2022-08-13T05:52:41.709Z,6.30
2022-08-13T05:56:13.672Z,6.70
2022-08-13T05:58:03.434Z,6.70
2022-08-13T06:01:11.055Z,6.23
2022-08-13T06:04:25.420Z,6.23
2022-08-13T06:06:34.250Z,6.30
2022-08-13T06:09:08.198Z,6.20
2022-08-13T06:12:21.233Z,5.97
2022-08-13T06:14:32.948Z,6.40
2022-08-13T06:17:03.500Z,6.30
2022-08-13T06:19:34.055Z,5.87
2022-08-13T06:22:05.520Z,6.23
2022-08-13T06:24:53.098Z,6.05
2022-08-13T06:27:56.032Z,5.73
2022-08-13T06:30:27.798Z,6.30
2022-08-13T06:34:09.014Z,5.80
2022-08-13T06:35:57.006Z,5.90
2022-08-13T06:38:33.872Z,5.73
2022-08-13T06:41:04.851Z,5.67
2022-08-13T06:43:47.351Z,5.57
2022-08-13T06:46:27.141Z,5.82
2022-08-13T06:49:02.368Z,5.43
2022-08-13T06:51:31.130Z,5.72
2022-08-13T06:54:23.661Z,5.95
2022-08-13T06:57:12.671Z,5.43
2022-08-13T07:00:04.730Z,6.10
2022-08-13T07:02:38.120Z,5.22
2022-08-13T07:05:07.506Z,6.18
2022-08-13T07:07:44.980Z,5.38
2022-08-13T07:10:15.435Z,5.47
2022-08-13T07:12:44.313Z,6.05
2022-08-13T07:15:25.299Z,5.30
2022-08-13T07:18:06.281Z,5.63
2022-08-13T07:20:33.790Z,5.30
2022-08-13T07:24:38.633Z,5.68
2022-08-13T07:25:57.710Z,5.65
2022-08-13T07:28:46.973Z,5.18
2022-08-13T07:31:16.966Z,4.97
2022-08-13T07:33:54.475Z,5.63
2022-08-13T07:36:29.481Z,5.70
2022-08-13T07:38:58.779Z,4.97
2022-08-13T07:41:30.589Z,4.90
2022-08-13T07:44:02.637Z,5.35
2022-08-13T07:46:50.387Z,5.05
2022-08-13T07:49:19.706Z,4.97
2022-08-13T07:51:51.361Z,4.97
2022-08-13T07:54:19.691Z,5.28
2022-08-13T07:59:24.502Z,4.82
2022-08-13T08:02:20.954Z,5.10
2022-08-13T08:04:54.626Z,4.57
2022-08-13T08:07:26.420Z,5.32
2022-08-13T08:10:13.964Z,5.20
2022-08-13T08:12:47.450Z,5.00
2022-08-13T08:16:00.589Z,4.75
2022-08-13T08:18:13.191Z,4.78
2022-08-13T08:20:58.342Z,4.88
2022-08-13T08:23:50.724Z,5.20
2022-08-13T08:26:17.602Z,4.72
2022-08-13T08:28:51.218Z,5.18
2022-08-13T08:31:21.183Z,4.88
2022-08-13T08:33:58.249Z,4.85
2022-08-13T08:36:35.508Z,4.78
2022-08-13T08:39:38.585Z,4.75
2022-08-13T08:42:34.625Z,5.30
2022-08-13T08:45:04.379Z,5.07
2022-08-13T08:47:47.148Z,4.85
2022-08-13T08:50:27.015Z,4.63
2022-08-13T08:54:01.403Z,4.70
2022-08-13T08:56:07.424Z,4.68
2022-08-13T08:58:42.499Z,4.88
2022-08-13T09:01:14.600Z,4.78
2022-08-13T09:03:45.859Z,4.65
2022-08-13T09:06:51.405Z,4.65
2022-08-13T09:09:22.892Z,4.50
2022-08-13T09:11:55.908Z,4.53
2022-08-13T09:14:32.528Z,4.90
2022-08-13T09:17:04.489Z,4.57
2022-08-13T09:19:46.868Z,4.88
2022-08-13T09:22:26.645Z,4.57
2022-08-13T09:24:59.942Z,4.40
2022-08-13T09:28:02.409Z,4.50
2022-08-13T09:30:23.109Z,4.60
2022-08-13T09:32:58.395Z,4.50
2022-08-13T09:35:35.383Z,3.97
2022-08-13T09:38:12.511Z,3.60
2022-08-13T09:40:56.526Z,3.60
2022-08-13T09:43:45.014Z,3.40
2022-08-13T09:46:19.886Z,3.45
2022-08-13T09:48:54.093Z,3.70
2022-08-13T09:51:55.677Z,3.50
2022-08-13T09:54:13.609Z,3.22
2022-08-13T09:56:41.179Z,3.40
2022-08-13T09:59:15.585Z,3.35
2022-08-13T10:01:59.893Z,3.63
2022-08-13T10:04:33.961Z,3.15
2022-08-13T10:07:04.269Z,3.20
2022-08-13T10:09:55.777Z,3.10
2022-08-13T10:12:28.904Z,3.58
2022-08-13T10:14:58.018Z,4.05
2022-08-13T10:17:48.876Z,3.42
2022-08-13T10:20:31.824Z,3.45
2022-08-13T10:23:00.304Z,3.40
2022-08-13T10:25:30.079Z,3.60
2022-08-13T10:28:28.089Z,3.40
2022-08-13T10:31:50.142Z,3.55
2022-08-13T10:34:00.005Z,3.80
2022-08-13T10:36:34.645Z,3.45
2022-08-13T10:39:09.598Z,3.63
2022-08-13T10:41:44.634Z,3.50
2022-08-13T10:44:28.219Z,3.30
2022-08-13T10:46:56.138Z,3.13
2022-08-13T10:49:24.010Z,2.85
2022-08-13T10:52:04.245Z,3.60
2022-08-13T10:54:36.630Z,3.22
2022-08-13T10:57:10.313Z,3.10
2022-08-13T10:59:41.764Z,3.33
2022-08-13T11:02:12.278Z,3.30
2022-08-13T11:04:51.198Z,3.35
2022-08-13T11:07:22.055Z,3.50
2022-08-13T11:09:50.747Z,3.50
2022-08-13T11:12:21.545Z,3.22
2022-08-13T11:14:49.703Z,3.72
2022-08-13T11:17:56.544Z,3.90
2022-08-13T11:20:18.010Z,3.58
2022-08-13T11:22:49.991Z,3.78
2022-08-13T11:25:55.731Z,3.75
2022-08-13T11:28:18.808Z,3.60
2022-08-13T11:30:49.661Z,3.53
2022-08-13T11:33:18.818Z,3.95
2022-08-13T11:35:48.289Z,4.20
2022-08-13T11:38:20.054Z,3.60
2022-08-13T11:40:53.676Z,4.13
2022-08-13T11:43:23.343Z,3.40
2022-08-13T11:45:51.127Z,4.05
2022-08-13T11:48:29.520Z,3.33
2022-08-13T11:50:57.638Z,3.47
2022-08-13T11:53:26.674Z,3.33
2022-08-13T11:56:01.401Z,3.50
2022-08-13T11:58:47.806Z,3.20
2022-08-13T12:01:24.960Z,3.30
2022-08-13T12:06:48.107Z,3.67
2022-08-13T12:09:23.432Z,3.67
2022-08-13T12:12:12.385Z,3.17
2022-08-13T12:14:52.198Z,3.70
2022-08-13T12:17:22.390Z,3.70
2022-08-13T12:20:19.389Z,3.80
2022-08-13T12:22:53.074Z,3.53
2022-08-13T12:26:01.728Z,3.33
2022-08-13T12:28:28.506Z,4.05
2022-08-13T12:31:05.506Z,3.47
2022-08-13T12:33:39.363Z,3.72
2022-08-13T12:36:16.475Z,3.80
2022-08-13T12:38:58.901Z,3.97
2022-08-13T12:41:38.863Z,3.55
2022-08-13T12:45:06.639Z,3.33
2022-08-13T12:46:59.659Z,3.17
2022-08-13T12:49:29.132Z,3.85
2022-08-13T12:51:56.467Z,3.63
2022-08-13T12:54:47.580Z,3.78
2022-08-13T12:57:26.402Z,3.60
2022-08-13T12:59:57.700Z,3.40
2022-08-13T13:02:32.105Z,3.65
2022-08-13T13:05:14.884Z,3.20
2022-08-13T13:08:02.034Z,3.47
2022-08-13T13:10:38.513Z,3.13
2022-08-13T13:13:12.149Z,3.35
2022-08-13T13:16:18.216Z,3.50
2022-08-13T13:18:54.703Z,3.65
2022-08-13T13:21:35.376Z,3.67
2022-08-13T13:24:17.197Z,3.45
2022-08-13T13:26:57.145Z,3.28
2022-08-13T13:29:38.333Z,3.55
2022-08-13T13:32:39.776Z,3.72
2022-08-13T13:35:10.188Z,3.92
2022-08-13T13:38:04.171Z,3.35
2022-08-13T13:40:37.965Z,3.72
2022-08-13T13:43:25.547Z,3.28
2022-08-13T13:46:00.632Z,3.53
2022-08-13T13:48:42.761Z,3.20
2022-08-13T13:51:15.354Z,3.40
2022-08-13T13:54:23.966Z,3.65
2022-08-13T13:56:36.618Z,3.97
2022-08-13T13:59:04.967Z,3.80
2022-08-13T14:01:50.275Z,3.88
2022-08-13T14:04:19.970Z,3.55
2022-08-13T14:06:47.220Z,3.83
2022-08-13T14:09:21.116Z,3.70
2022-08-13T14:11:52.810Z,3.50
2022-08-13T14:14:21.036Z,3.67
2022-08-13T14:16:49.127Z,3.63
2022-08-13T14:19:49.197Z,3.25
2022-08-13T14:22:07.597Z,3.65
2022-08-13T14:24:38.730Z,3.45
2022-08-13T14:27:18.418Z,3.92
2022-08-13T14:29:47.716Z,3.47
2022-08-13T14:32:20.716Z,3.80
2022-08-13T14:34:55.492Z,3.40
2022-08-13T14:37:23.860Z,4.07
2022-08-13T14:39:56.680Z,3.58
2022-08-13T14:43:15.566Z,3.58
2022-08-13T14:45:57.727Z,3.40
2022-08-13T14:48:28.295Z,3.53
2022-08-13T14:50:59.124Z,3.70
2022-08-13T14:53:26.815Z,3.25
2022-08-13T14:56:00.015Z,3.60
2022-08-13T14:58:33.192Z,3.58
2022-08-13T15:01:04.399Z,3.50
2022-08-13T15:03:38.663Z,3.00
2022-08-13T15:06:09.911Z,3.42
2022-08-13T15:08:40.717Z,3.20
2022-08-13T15:11:17.091Z,3.60
2022-08-13T15:13:56.046Z,3.20
2022-08-13T15:16:31.320Z,3.55
2022-08-13T15:19:03.011Z,3.30
2022-08-13T15:21:48.453Z,3.70
2022-08-13T15:24:37.870Z,3.30
2022-08-13T15:27:31.358Z,3.30
2022-08-13T15:30:17.795Z,3.55
2022-08-13T15:32:53.029Z,3.50
2022-08-13T15:35:36.715Z,3.38
2022-08-13T15:38:18.640Z,3.42
2022-08-13T15:40:52.970Z,3.63
2022-08-13T15:43:35.514Z,3.50
2022-08-13T15:46:06.161Z,3.40
2022-08-13T15:48:35.291Z,3.70
2022-08-13T15:51:03.990Z,3.80
2022-08-13T15:53:32.239Z,3.25
2022-08-13T15:56:03.363Z,3.42
2022-08-13T15:58:34.163Z,4.03
2022-08-13T16:01:20.633Z,3.50
2022-08-13T16:03:56.515Z,4.20
2022-08-13T16:06:31.783Z,3.83
2022-08-13T16:09:03.826Z,3.60
2022-08-13T16:11:43.620Z,4.00
2022-08-13T16:14:20.061Z,3.70
2022-08-13T16:16:51.997Z,3.70
2022-08-13T16:22:10.690Z,4.10
2022-08-13T16:24:39.344Z,3.72
2022-08-13T16:27:24.529Z,3.53
2022-08-13T16:29:57.251Z,3.60
2022-08-13T16:32:29.702Z,4.00
2022-08-13T16:34:58.314Z,3.42
2022-08-13T16:37:46.264Z,3.90
2022-08-13T16:40:18.124Z,3.60
2022-08-13T16:42:49.744Z,3.80
2022-08-13T16:45:20.100Z,4.28
2022-08-13T16:47:51.319Z,3.95
2022-08-13T16:50:20.092Z,4.10
2022-08-13T16:52:51.896Z,3.63
2022-08-13T16:55:24.275Z,4.25
2022-08-13T16:57:53.659Z,4.40
2022-08-13T17:00:27.078Z,4.65
2022-08-13T17:03:18.621Z,4.00
2022-08-13T17:06:10.627Z,4.72
2022-08-13T17:08:56.309Z,4.20
2022-08-13T17:11:37.187Z,4.28
2022-08-13T17:14:12.049Z,4.00
2022-08-13T17:16:40.062Z,4.70
2022-08-13T17:19:09.694Z,4.57
2022-08-13T17:21:52.813Z,4.55
2022-08-13T17:24:24.919Z,4.43
2022-08-13T17:26:57.070Z,4.82
2022-08-13T17:29:54.021Z,4.60
2022-08-13T17:32:15.902Z,4.90
2022-08-13T17:34:43.783Z,4.47
2022-08-13T17:37:18.242Z,4.18
2022-08-13T17:39:56.428Z,4.50
2022-08-13T17:43:59.120Z,4.28
2022-08-13T17:45:29.564Z,4.80
2022-08-13T17:48:04.018Z,5.15
2022-08-13T17:50:41.505Z,5.03
2022-08-13T17:53:15.758Z,4.68
2022-08-13T17:55:51.826Z,5.63
2022-08-13T17:58:34.773Z,5.10
2022-08-13T18:01:20.958Z,5.32
2022-08-13T18:03:58.356Z,4.97
2022-08-13T18:06:32.231Z,5.45
2022-08-13T18:09:03.824Z,4.75
2022-08-13T18:11:37.983Z,5.50
2022-08-13T18:14:21.622Z,5.45
2022-08-13T18:17:35.898Z,5.10
2022-08-13T18:19:52.953Z,5.68
2022-08-13T18:22:27.162Z,5.28
2022-08-13T18:25:00.671Z,5.88
2022-08-13T18:28:16.618Z,5.47
2022-08-13T18:30:33.220Z,5.57
2022-08-13T18:33:11.345Z,5.30
2022-08-13T18:35:55.217Z,5.40
2022-08-13T18:38:33.868Z,5.03
2022-08-13T18:41:05.396Z,5.30
2022-08-13T18:43:32.959Z,5.60
2022-08-13T18:46:01.200Z,5.45
2022-08-13T18:48:33.676Z,4.82
2022-08-13T18:51:32.189Z,5.38
2022-08-13T18:53:57.495Z,4.85
2022-08-13T18:56:25.485Z,4.80
2022-08-13T18:58:53.996Z,4.82
2022-08-13T19:01:26.911Z,4.50
2022-08-13T19:04:00.087Z,5.05
2022-08-13T19:06:35.061Z,4.95
2022-08-13T19:09:09.409Z,5.45
2022-08-13T19:11:45.245Z,5.13
2022-08-13T19:14:16.365Z,5.20
2022-08-13T19:16:57.764Z,5.40
2022-08-13T19:19:55.127Z,5.10
2022-08-13T19:22:19.994Z,8.10
2022-08-13T19:24:51.776Z,7.22
2022-08-13T19:27:21.211Z,8.15
2022-08-13T19:30:02.476Z,7.05
2022-08-13T19:32:29.601Z,6.50
2022-08-13T19:34:57.948Z,5.25
2022-08-13T19:37:25.695Z,5.35
2022-08-13T19:40:34.361Z,5.22
2022-08-13T19:42:49.685Z,5.50
2022-08-13T19:45:23.921Z,5.18
2022-08-13T19:47:59.698Z,5.60
2022-08-13T19:50:34.426Z,5.50
2022-08-13T19:53:05.806Z,5.50
2022-08-13T19:55:53.658Z,5.40
2022-08-13T19:58:25.089Z,5.35
2022-08-13T20:00:54.031Z,5.53
2022-08-13T20:03:24.546Z,5.50
2022-08-13T20:05:54.042Z,5.10
2022-08-13T20:08:35.754Z,6.05
2022-08-13T20:11:06.917Z,6.22
2022-08-13T20:13:49.095Z,5.80
2022-08-13T20:16:21.695Z,5.68
2022-08-13T20:18:55.310Z,5.85
2022-08-13T20:21:45.485Z,5.60
2022-08-13T20:25:44.607Z,5.82
2022-08-13T20:27:43.075Z,5.15
2022-08-13T20:29:59.121Z,5.72
2022-08-13T20:32:33.377Z,5.53
2022-08-13T20:35:23.875Z,5.47
2022-08-13T20:37:53.212Z,5.10
2022-08-13T20:40:25.439Z,5.72
2022-08-13T20:43:11.988Z,5.43
2022-08-13T20:45:51.293Z,5.65
2022-08-13T20:48:30.980Z,5.72
2022-08-13T20:51:04.412Z,5.75
2022-08-13T20:53:36.117Z,5.13
2022-08-13T20:56:09.402Z,5.47
2022-08-13T21:00:43.450Z,5.53
2022-08-13T21:01:30.635Z,5.45
2022-08-13T21:03:58.281Z,5.20
2022-08-13T21:06:27.944Z,5.25
2022-08-13T21:08:55.596Z,5.55
2022-08-13T21:11:23.883Z,5.82
2022-08-13T21:13:51.736Z,5.95
2022-08-13T21:16:33.044Z,5.85
2022-08-13T21:21:56.534Z,5.95
2022-08-13T21:24:33.262Z,6.32
2022-08-13T21:28:37.521Z,6.05
2022-08-13T21:30:29.147Z,6.40
2022-08-13T21:33:16.001Z,5.70
2022-08-13T21:35:50.642Z,5.70
2022-08-13T21:38:30.737Z,6.32
2022-08-13T21:41:10.416Z,6.43
2022-08-13T21:43:50.972Z,6.00
2022-08-13T21:46:25.883Z,5.60
2022-08-13T21:49:02.079Z,5.90
2022-08-13T21:51:41.917Z,6.77
2022-08-13T21:54:16.285Z,6.10
2022-08-13T21:57:02.343Z,6.37
2022-08-13T21:59:39.889Z,6.40
2022-08-13T22:02:09.611Z,5.30
2022-08-13T22:04:46.036Z,5.73
2022-08-13T22:07:15.293Z,5.87
2022-08-13T22:10:09.248Z,6.43
2022-08-13T22:12:38.547Z,5.80
2022-08-13T22:15:18.805Z,6.00
2022-08-13T22:17:50.862Z,6.13
2022-08-13T22:20:21.421Z,6.07
2022-08-13T22:22:58.445Z,6.20
2022-08-13T22:25:30.870Z,6.00
2022-08-13T22:28:06.540Z,6.05
2022-08-13T22:30:55.836Z,5.82
2022-08-13T22:33:28.578Z,6.07
2022-08-13T22:36:15.833Z,6.97
2022-08-13T22:38:50.468Z,6.15
2022-08-13T22:41:25.207Z,6.30
2022-08-13T22:44:05.031Z,5.82
2022-08-13T22:46:39.109Z,6.15
2022-08-13T22:49:13.623Z,6.22
2022-08-13T22:51:45.371Z,5.72
2022-08-13T22:54:26.663Z,6.28
2022-08-13T22:56:57.136Z,6.05
2022-08-13T22:59:31.041Z,6.15
2022-08-13T23:02:11.696Z,5.80
2022-08-13T23:04:41.900Z,5.68
2022-08-13T23:07:12.346Z,6.28
2022-08-13T23:09:40.457Z,6.25
2022-08-13T23:12:13.116Z,5.40
2022-08-13T23:14:41.801Z,5.93
2022-08-13T23:17:18.563Z,5.63
2022-08-13T23:19:55.542Z,5.53
2022-08-13T23:22:32.075Z,5.28
2022-08-13T23:25:04.612Z,5.38
2022-08-13T23:27:42.357Z,5.53
2022-08-13T23:30:19.287Z,5.60
2022-08-13T23:32:53.585Z,5.43
2022-08-13T23:35:22.811Z,5.63
2022-08-13T23:37:54.236Z,5.82
2022-08-13T23:40:26.588Z,6.03
2022-08-13T23:42:57.325Z,5.40
2022-08-13T23:45:27.062Z,5.53
2022-08-13T23:47:57.705Z,6.20
2022-08-13T23:50:35.272Z,5.93
2022-08-13T23:53:15.841Z,6.15
2022-08-13T23:55:52.828Z,5.85
2022-08-13T23:58:35.034Z,5.70
